Time;durP1;ratioP1;P1;durP2;ratioP2;P2;SDS_P1;SDS_P2;PMS_P1;PMS_P2;Temp;Humidity;BMP_temperature;BMP_pressure;BME280_temperature;BME280_humidity;BME280_pressure;Samples;Min_cycle;Max_cycle;Signal;HPM_P1;HPM_P2
2022/04/11 00:01:53;;;;;;;8.07;4.33;;;2.50;99.90;;;;;;5020030;28;20172;-84
2022/04/11 00:04:19;;;;;;;7.50;4.00;;;2.60;99.90;;;;;;5019700;28;20216;-84
2022/04/11 00:06:44;;;;;;;9.83;4.50;;;2.60;99.90;;;;;;5019508;28;20181;-84
2022/04/11 00:09:10;;;;;;;9.00;4.67;;;2.50;99.90;;;;;;5037117;28;20259;-82
2022/04/11 00:11:36;;;;;;;9.07;4.50;;;2.50;99.90;;;;;;5019599;28;20177;-83
2022/04/11 00:14:04;;;;;;;12.13;4.70;;;2.60;99.90;;;;;;5037356;28;20204;-82
2022/04/11 00:16:30;;;;;;;9.90;4.70;;;2.50;99.90;;;;;;5020117;28;20173;-85
2022/04/11 00:18:56;;;;;;;13.93;4.70;;;2.40;99.90;;;;;;5021047;28;20184;-84
2022/04/11 00:21:22;;;;;;;14.73;4.90;;;2.40;99.90;;;;;;5020765;28;20353;-84
2022/04/11 00:23:48;;;;;;;10.87;4.63;;;2.30;99.90;;;;;;5020859;28;20180;-84
2022/04/11 00:26:14;;;;;;;11.67;4.40;;;2.20;99.90;;;;;;5020882;28;20643;-84
2022/04/11 00:28:39;;;;;;;9.40;4.13;;;2.30;99.90;;;;;;5020857;28;20197;-83
2022/04/11 00:31:05;;;;;;;8.17;4.60;;;2.20;99.90;;;;;;5020140;28;20197;-83
2022/04/11 00:33:31;;;;;;;11.73;3.93;;;2.20;99.90;;;;;;5020296;28;20181;-82
2022/04/11 00:35:57;;;;;;;11.30;4.10;;;2.20;99.90;;;;;;5020075;28;20641;-83
2022/04/11 00:38:22;;;;;;;10.23;4.40;;;2.30;99.90;;;;;;5020159;28;20177;-83
2022/04/11 00:43:38;;;;;;;7.67;4.43;;;2.10;99.90;;;;;;5033981;28;20217;-83
2022/04/11 00:46:06;;;;;;;11.77;4.47;;;2.20;99.90;;;;;;5035368;28;20173;-83
2022/04/11 00:48:32;;;;;;;8.77;4.47;;;2.10;99.90;;;;;;5035695;28;20222;-83
2022/04/11 00:51:18;;;;;;;11.77;4.63;;;2.00;99.90;;;;;;5036142;28;20278;-83
2022/04/11 00:53:45;;;;;;;10.87;4.27;;;2.10;99.90;;;;;;5035771;28;20184;-83
2022/04/11 00:56:13;;;;;;;9.13;4.40;;;2.10;99.90;;;;;;5038959;28;20177;-82
2022/04/11 00:58:39;;;;;;;6.90;4.53;;;2.00;99.90;;;;;;5037734;28;20176;-83
2022/04/11 01:01:06;;;;;;;10.30;4.43;;;2.10;99.90;;;;;;5035161;28;20197;-83
2022/04/11 01:03:33;;;;;;;6.97;4.43;;;1.90;99.90;;;;;;5035368;28;20176;-83
2022/04/11 01:05:59;;;;;;;13.10;5.17;;;1.90;99.90;;;;;;5035309;28;20656;-82
2022/04/11 01:08:25;;;;;;;9.70;4.40;;;2.00;99.90;;;;;;5035382;28;20195;-82
2022/04/11 01:10:52;;;;;;;15.63;5.73;;;1.90;99.90;;;;;;5035106;28;20202;-84
2022/04/11 01:13:18;;;;;;;9.37;4.20;;;1.80;99.90;;;;;;5037287;28;20712;-83
2022/04/11 01:16:04;;;;;;;6.83;4.10;;;1.90;99.90;;;;;;5038419;28;20199;-83
2022/04/11 01:18:35;;;;;;;8.60;4.40;;;1.90;99.90;;;;;;5038413;28;20217;-83
2022/04/11 01:21:02;;;;;;;9.23;4.73;;;1.90;99.90;;;;;;5037778;28;20674;-83
2022/04/11 01:23:27;;;;;;;11.90;5.23;;;1.80;99.90;;;;;;5038115;28;20207;-82
2022/04/11 01:25:54;;;;;;;8.47;4.40;;;1.70;99.90;;;;;;5037720;28;20176;-83
2022/04/11 01:28:21;;;;;;;9.43;4.53;;;1.80;99.90;;;;;;5038438;28;20207;-82
2022/04/11 01:30:50;;;;;;;10.27;4.30;;;1.80;99.90;;;;;;5037949;28;20281;-83
2022/04/11 01:33:25;;;;;;;6.53;4.40;;;1.80;99.90;;;;;;5036683;28;20532;-82
2022/04/11 01:35:51;;;;;;;9.63;4.90;;;1.80;99.90;;;;;;5033062;28;20199;-81
2022/04/11 01:38:17;;;;;;;12.17;5.07;;;1.70;99.90;;;;;;5034519;28;20170;-82
2022/04/11 01:40:55;;;;;;;6.97;4.17;;;1.80;99.90;;;;;;5033014;28;20681;-81
2022/04/11 01:43:22;;;;;;;8.57;4.80;;;1.80;99.90;;;;;;5032992;28;20183;-82
2022/04/11 01:45:48;;;;;;;10.67;4.83;;;1.80;99.90;;;;;;5032959;28;20264;-81
2022/04/11 01:48:14;;;;;;;8.97;4.90;;;1.70;99.90;;;;;;5032670;28;20724;-82
2022/04/11 01:50:40;;;;;;;9.80;4.53;;;1.50;99.90;;;;;;5032573;28;20295;-81
2022/04/11 01:53:14;;;;;;;7.13;4.87;;;1.60;99.90;;;;;;5016548;28;20250;-81
2022/04/11 01:55:41;;;;;;;9.90;4.97;;;1.60;99.90;;;;;;5033004;28;20184;-81
2022/04/11 01:58:08;;;;;;;12.97;5.90;;;1.70;99.90;;;;;;5032755;28;20187;-81
2022/04/11 02:00:35;;;;;;;9.80;5.10;;;1.70;99.90;;;;;;5034706;28;20205;-82
2022/04/11 02:03:02;;;;;;;10.77;4.83;;;1.80;99.90;;;;;;5037260;28;20181;-82
2022/04/11 02:05:28;;;;;;;12.47;5.37;;;1.80;99.90;;;;;;5034210;28;20525;-82
2022/04/11 02:07:55;;;;;;;9.87;4.93;;;1.80;99.90;;;;;;5035371;28;20202;-82
2022/04/11 02:10:21;;;;;;;8.37;4.93;;;1.80;99.90;;;;;;5034927;28;20200;-83
2022/04/11 02:12:49;;;;;;;10.40;5.40;;;1.80;99.90;;;;;;5034943;28;20262;-84
2022/04/11 02:15:16;;;;;;;14.03;5.47;;;1.80;99.90;;;;;;5035097;28;20200;-83
2022/04/11 02:17:42;;;;;;;9.10;5.37;;;1.80;99.90;;;;;;5034621;28;20226;-83
2022/04/11 02:20:09;;;;;;;10.03;5.90;;;1.70;99.90;;;;;;5034489;28;20251;-83
2022/04/11 02:22:48;;;;;;;8.87;4.90;;;1.70;99.90;;;;;;5034577;28;20194;-82
2022/04/11 02:25:14;;;;;;;12.53;5.53;;;1.60;99.90;;;;;;5034187;28;20171;-82
2022/04/11 02:27:40;;;;;;;9.13;5.30;;;1.60;99.90;;;;;;5034653;28;20177;-81
2022/04/11 02:30:06;;;;;;;9.53;5.07;;;1.70;99.90;;;;;;5034457;28;20200;-82
2022/04/11 02:32:32;;;;;;;10.97;5.43;;;1.70;99.90;;;;;;5035285;28;20632;-82
2022/04/11 02:34:58;;;;;;;9.53;5.20;;;1.70;99.90;;;;;;5035162;28;20273;-82
2022/04/11 02:37:24;;;;;;;9.27;5.30;;;1.80;99.90;;;;;;5034326;28;20180;-83
2022/04/11 02:39:50;;;;;;;11.83;5.67;;;1.80;99.90;;;;;;5034994;28;20210;-83
2022/04/11 02:42:26;;;;;;;17.13;7.17;;;1.80;99.90;;;;;;5035120;28;20208;-83
2022/04/11 02:44:52;;;;;;;12.67;6.20;;;1.90;99.90;;;;;;5035038;28;20531;-82
2022/04/11 02:47:18;;;;;;;12.23;5.93;;;1.90;99.90;;;;;;5034564;28;20208;-83
2022/04/11 02:49:44;;;;;;;11.33;6.07;;;2.10;99.90;;;;;;5034084;28;20219;-83
2022/04/11 02:52:10;;;;;;;17.73;6.37;;;2.20;99.90;;;;;;5034321;28;20220;-81
2022/04/11 02:54:36;;;;;;;9.90;5.77;;;2.10;99.90;;;;;;5034531;28;20181;-82
2022/04/11 02:57:03;;;;;;;10.23;5.73;;;2.10;99.90;;;;;;5034553;28;20169;-84
2022/04/11 02:59:28;;;;;;;12.07;5.90;;;2.00;99.90;;;;;;5034403;28;20567;-85
2022/04/11 03:01:55;;;;;;;11.87;5.60;;;1.90;99.90;;;;;;5033384;28;20264;-84
2022/04/11 03:04:21;;;;;;;13.77;6.23;;;1.90;99.90;;;;;;5034513;28;20200;-82
2022/04/11 03:06:46;;;;;;;14.33;6.07;;;2.00;99.90;;;;;;5035552;28;20215;-82
2022/04/11 03:09:12;;;;;;;15.10;5.80;;;1.90;99.90;;;;;;5035057;28;20212;-81
2022/04/11 03:11:38;;;;;;;10.63;5.60;;;1.80;99.90;;;;;;5035352;28;20174;-82
2022/04/11 03:14:03;;;;;;;11.17;5.77;;;1.80;99.90;;;;;;5036536;28;20517;-83
2022/04/11 03:16:29;;;;;;;10.50;5.93;;;1.80;99.90;;;;;;5036093;28;20177;-82
2022/04/11 03:18:55;;;;;;;11.07;6.13;;;1.80;99.90;;;;;;5038945;28;20204;-83
2022/04/11 03:21:20;;;;;;;12.77;5.97;;;1.90;99.90;;;;;;5037908;28;20191;-82
2022/04/11 03:23:46;;;;;;;11.17;5.93;;;1.80;99.90;;;;;;5038235;28;20180;-83
2022/04/11 03:26:12;;;;;;;8.67;5.80;;;1.80;99.90;;;;;;5038984;28;20183;-84
2022/04/11 03:28:37;;;;;;;12.67;6.10;;;1.90;99.90;;;;;;5037890;28;20208;-83
2022/04/11 03:31:03;;;;;;;14.90;6.33;;;1.80;99.90;;;;;;5038709;28;20199;-83
2022/04/11 03:33:29;;;;;;;12.97;6.23;;;1.80;99.90;;;;;;5038554;28;20246;-83
2022/04/11 03:35:54;;;;;;;12.93;5.53;;;1.90;99.90;;;;;;5036872;28;20228;-84
2022/04/11 03:38:20;;;;;;;11.83;6.17;;;2.00;99.90;;;;;;5036167;28;20237;-83
2022/04/11 03:40:46;;;;;;;11.63;6.47;;;2.00;99.90;;;;;;5036988;28;20252;-83
2022/04/11 03:43:11;;;;;;;13.20;6.70;;;2.00;99.90;;;;;;5036847;28;20236;-83
2022/04/11 03:45:37;;;;;;;12.37;6.50;;;2.00;99.90;;;;;;5037312;28;20177;-83
2022/04/11 03:48:03;;;;;;;19.17;6.30;;;1.90;99.90;;;;;;5035925;28;20212;-83
2022/04/11 03:50:29;;;;;;;13.50;6.63;;;1.90;99.90;;;;;;5037966;28;20190;-83
2022/04/11 03:52:54;;;;;;;14.13;6.00;;;1.80;99.90;;;;;;5037061;28;20179;-83
2022/04/11 03:55:20;;;;;;;7.87;5.03;;;1.70;99.90;;;;;;5036521;28;20177;-84
2022/04/11 03:57:46;;;;;;;11.80;5.13;;;1.60;99.90;;;;;;5036485;28;20169;-82
2022/04/11 04:00:12;;;;;;;16.17;6.03;;;1.80;99.90;;;;;;5036449;28;20618;-84
2022/04/11 04:02:38;;;;;;;12.77;5.70;;;1.70;99.90;;;;;;5038186;28;20183;-82
2022/04/11 04:05:04;;;;;;;11.97;5.30;;;1.60;99.90;;;;;;5038778;28;20203;-82
2022/04/11 04:07:30;;;;;;;7.93;4.90;;;1.60;99.90;;;;;;5039837;28;20620;-83
2022/04/11 04:09:55;;;;;;;8.87;5.10;;;1.50;99.90;;;;;;5039213;28;20238;-83
2022/04/11 04:12:22;;;;;;;9.07;5.20;;;1.40;99.90;;;;;;5038872;28;20173;-83
2022/04/11 04:14:48;;;;;;;12.87;5.00;;;1.50;99.90;;;;;;5038746;28;20181;-82
2022/04/11 04:17:14;;;;;;;10.40;5.23;;;1.40;99.90;;;;;;5039013;28;20171;-83
2022/04/11 04:19:41;;;;;;;10.67;5.30;;;1.40;99.90;;;;;;5039096;28;20209;-83
2022/04/11 04:22:06;;;;;;;10.87;5.37;;;1.30;99.90;;;;;;5038561;28;20176;-83
2022/04/11 04:24:34;;;;;;;10.33;5.03;;;1.30;99.90;;;;;;5041790;28;20223;-83
2022/04/11 04:27:01;;;;;;;8.93;4.80;;;1.50;99.90;;;;;;5040344;28;20177;-83
2022/04/11 04:29:27;;;;;;;9.63;5.03;;;1.50;99.90;;;;;;5037248;28;20209;-83
2022/04/11 04:31:54;;;;;;;8.23;5.13;;;1.40;99.90;;;;;;5039107;28;20233;-83
2022/04/11 04:34:25;;;;;;;9.20;4.90;;;1.30;99.90;;;;;;5036396;28;20185;-83
2022/04/11 04:36:50;;;;;;;10.73;5.33;;;1.30;99.90;;;;;;5036195;28;20183;-84
2022/04/11 04:39:16;;;;;;;18.40;5.50;;;1.30;99.90;;;;;;5035698;28;20196;-82
2022/04/11 04:41:42;;;;;;;8.53;5.77;;;1.30;99.90;;;;;;5035245;28;20234;-82
2022/04/11 04:44:08;;;;;;;12.00;5.70;;;1.30;99.90;;;;;;5035320;28;20600;-82
2022/04/11 04:46:34;;;;;;;12.43;5.60;;;1.30;99.90;;;;;;5035762;28;20580;-81
2022/04/11 04:49:00;;;;;;;13.03;5.53;;;1.20;99.90;;;;;;5036204;28;20205;-82
2022/04/11 04:51:26;;;;;;;10.33;5.70;;;1.20;99.90;;;;;;5036293;28;20174;-82
2022/04/11 04:53:51;;;;;;;8.37;5.17;;;1.20;99.90;;;;;;5036354;28;20175;-82
2022/04/11 04:56:17;;;;;;;9.90;5.63;;;1.20;99.90;;;;;;5035153;28;20180;-82
2022/04/11 04:58:45;;;;;;;12.10;5.67;;;1.20;99.90;;;;;;5036865;28;20178;-82
2022/04/11 05:01:14;;;;;;;12.43;6.17;;;1.30;99.90;;;;;;5036433;28;20200;-82
2022/04/11 05:03:41;;;;;;;11.43;5.53;;;1.20;99.90;;;;;;5036035;28;20170;-82
2022/04/11 05:06:06;;;;;;;9.43;5.43;;;1.20;99.90;;;;;;5035518;28;20175;-83
2022/04/11 05:08:32;;;;;;;12.37;5.93;;;1.30;99.90;;;;;;5035627;28;20291;-83
2022/04/11 05:10:59;;;;;;;13.30;6.23;;;1.40;99.90;;;;;;5035520;28;20192;-83
2022/04/11 05:13:24;;;;;;;11.73;5.87;;;1.40;99.90;;;;;;5035919;28;20600;-84
2022/04/11 05:15:50;;;;;;;11.17;6.17;;;1.50;99.90;;;;;;5035322;28;20168;-83
2022/04/11 05:18:17;;;;;;;13.50;6.17;;;1.60;99.90;;;;;;5035991;28;20175;-81
2022/04/11 05:20:43;;;;;;;12.67;6.27;;;1.40;99.90;;;;;;5036324;28;20245;-81
2022/04/11 05:23:09;;;;;;;9.63;5.70;;;1.40;99.90;;;;;;5037614;28;20180;-83
2022/04/11 05:25:35;;;;;;;11.30;6.47;;;1.40;99.90;;;;;;5038801;28;20175;-81
2022/04/11 05:28:01;;;;;;;13.00;6.27;;;1.50;99.90;;;;;;5036229;28;20211;-81
2022/04/11 05:30:26;;;;;;;14.67;6.13;;;1.50;99.90;;;;;;5036329;28;20220;-81
2022/04/11 05:32:52;;;;;;;11.97;7.30;;;1.50;99.90;;;;;;5036024;28;20266;-83
2022/04/11 05:35:18;;;;;;;17.30;6.23;;;1.50;99.90;;;;;;5035570;28;20176;-84
2022/04/11 05:37:43;;;;;;;13.30;6.13;;;1.60;99.90;;;;;;5036084;28;20174;-82
2022/04/11 05:40:12;;;;;;;17.00;5.63;;;1.70;99.90;;;;;;5034626;28;20258;-82
2022/04/11 05:42:38;;;;;;;16.20;7.07;;;1.70;99.90;;;;;;5035312;28;20596;-83
2022/04/11 05:45:04;;;;;;;10.13;6.17;;;1.70;99.90;;;;;;5035237;28;20180;-83
2022/04/11 05:47:30;;;;;;;15.53;6.50;;;1.70;99.90;;;;;;5035270;28;20169;-83
2022/04/11 05:49:56;;;;;;;11.30;5.80;;;1.70;99.90;;;;;;5035568;28;20214;-84
2022/04/11 05:52:21;;;;;;;14.13;5.97;;;1.80;99.90;;;;;;5035139;28;20205;-82
2022/04/11 05:54:47;;;;;;;11.23;6.03;;;1.90;99.90;;;;;;5035538;28;20267;-83
2022/04/11 05:57:13;;;;;;;8.97;5.50;;;2.20;99.90;;;;;;5034734;28;20216;-81
2022/04/11 05:59:39;;;;;;;10.80;5.30;;;2.40;99.90;;;;;;5034293;28;20203;-83
2022/04/11 06:02:05;;;;;;;9.20;4.83;;;2.50;99.90;;;;;;5031839;28;20173;-83
2022/04/11 06:04:30;;;;;;;8.27;5.07;;;2.70;99.90;;;;;;5032135;28;20196;-82
2022/04/11 06:06:56;;;;;;;8.70;5.50;;;2.70;99.90;;;;;;5032128;28;20210;-85
2022/04/11 06:09:22;;;;;;;8.37;4.50;;;2.80;99.90;;;;;;5031852;28;20239;-84
2022/04/11 06:11:48;;;;;;;7.90;5.03;;;3.10;99.90;;;;;;5031694;28;20194;-84
2022/04/11 06:14:13;;;;;;;13.50;4.37;;;3.20;99.90;;;;;;5032257;28;20626;-81
2022/04/11 06:16:39;;;;;;;6.63;4.30;;;3.50;99.90;;;;;;5032084;28;20174;-81
2022/04/11 06:19:05;;;;;;;10.23;4.47;;;3.40;99.90;;;;;;5032261;28;20179;-81
2022/04/11 06:21:30;;;;;;;8.70;4.47;;;3.50;99.90;;;;;;5032716;28;20181;-81
2022/04/11 06:23:56;;;;;;;9.73;5.10;;;3.70;99.90;;;;;;5032391;28;20180;-81
2022/04/11 06:26:21;;;;;;;7.73;4.47;;;3.70;99.90;;;;;;5032037;28;20205;-81
2022/04/11 06:28:47;;;;;;;6.97;4.70;;;3.70;99.90;;;;;;5031848;28;20744;-82
2022/04/11 06:31:16;;;;;;;13.70;4.73;;;3.80;99.90;;;;;;5023464;28;20297;-81
2022/04/11 06:33:42;;;;;;;8.40;5.10;;;3.90;99.90;;;;;;5020888;28;20172;-80
2022/04/11 06:36:08;;;;;;;10.80;4.83;;;3.80;99.90;;;;;;5023229;28;20581;-82
2022/04/11 06:38:34;;;;;;;7.73;4.80;;;4.00;99.90;;;;;;5021326;28;20178;-80
2022/04/11 06:40:59;;;;;;;9.60;4.80;;;4.10;99.90;;;;;;5021047;28;20198;-81
2022/04/11 06:43:26;;;;;;;11.07;4.80;;;4.30;99.90;;;;;;5022807;28;20183;-82
2022/04/11 06:45:52;;;;;;;8.07;4.40;;;4.40;99.90;;;;;;5031928;22;20306;-85
2022/04/11 06:48:17;;;;;;;7.83;4.13;;;4.70;99.90;;;;;;5032814;28;20226;-82
2022/04/11 06:50:43;;;;;;;6.77;3.67;;;5.20;99.90;;;;;;5038149;28;20288;-82
2022/04/11 06:53:09;;;;;;;9.23;3.63;;;5.60;99.90;;;;;;5034661;28;20169;-82
2022/04/11 06:55:35;;;;;;;5.37;3.33;;;5.70;99.90;;;;;;5034871;28;20186;-82
2022/04/11 06:58:01;;;;;;;5.70;3.67;;;6.30;99.90;;;;;;5045126;22;20240;-80
2022/04/11 07:00:28;;;;;;;5.60;3.37;;;6.30;99.90;;;;;;5024765;28;20221;-79
2022/04/11 07:02:53;;;;;;;4.60;3.10;;;6.70;99.90;;;;;;5017412;28;20256;-82
2022/04/11 07:05:19;;;;;;;5.73;3.03;;;7.30;99.90;;;;;;5008484;28;20581;-82
2022/04/11 07:07:45;;;;;;;5.20;3.27;;;7.10;99.90;;;;;;5008683;28;20199;-82
2022/04/11 07:10:11;;;;;;;6.03;3.30;;;7.40;99.90;;;;;;5007595;28;20365;-82
2022/04/11 07:12:41;;;;;;;6.27;3.00;;;7.00;99.90;;;;;;5006730;28;20167;-82
2022/04/11 07:15:08;;;;;;;5.33;2.87;;;6.80;99.90;;;;;;5009550;28;20169;-80
2022/04/11 07:17:34;;;;;;;3.43;3.00;;;6.50;99.90;;;;;;5009505;28;20228;-81
2022/04/11 07:20:01;;;;;;;8.73;3.20;;;6.40;99.90;;;;;;5010114;28;20231;-79
2022/04/11 07:22:26;;;;;;;5.23;3.23;;;6.50;99.90;;;;;;5025909;28;20190;-80
2022/04/11 07:24:52;;;;;;;4.40;3.00;;;6.90;99.90;;;;;;5008339;28;20273;-81
2022/04/11 07:27:18;;;;;;;5.47;3.30;;;6.80;99.90;;;;;;5007201;28;20180;-80
2022/04/11 07:29:43;;;;;;;5.60;3.40;;;6.90;99.90;;;;;;5007501;28;20301;-81
2022/04/11 07:32:09;;;;;;;7.67;3.20;;;7.00;99.90;;;;;;5009014;28;20215;-81
2022/04/11 07:34:35;;;;;;;8.07;3.50;;;7.20;99.90;;;;;;5008622;28;20210;-81
2022/04/11 07:37:01;;;;;;;7.20;3.37;;;7.30;99.90;;;;;;5010833;28;20171;-81
2022/04/11 07:39:29;;;;;;;5.37;3.20;;;7.40;99.90;;;;;;5008954;28;20277;-81
2022/04/11 07:41:55;;;;;;;7.03;3.27;;;7.30;99.90;;;;;;5007077;28;20519;-81
2022/04/11 07:44:21;;;;;;;12.23;3.40;;;7.30;99.90;;;;;;5007113;28;20194;-81
2022/04/11 07:46:47;;;;;;;7.27;3.43;;;7.00;99.90;;;;;;5007184;28;20179;-81
2022/04/11 07:49:13;;;;;;;5.17;3.13;;;7.30;99.90;;;;;;5007413;28;20571;-81
2022/04/11 07:51:38;;;;;;;3.40;2.87;;;7.80;99.90;;;;;;5009435;28;20175;-80
2022/04/11 07:54:04;;;;;;;4.40;3.20;;;8.20;99.90;;;;;;5008041;28;20195;-82
2022/04/11 07:56:30;;;;;;;12.13;3.47;;;8.70;99.90;;;;;;5009454;28;20170;-81
2022/04/11 07:58:56;;;;;;;5.80;3.23;;;9.50;99.90;;;;;;5007455;28;20821;-81
2022/04/11 08:01:23;;;;;;;5.07;3.10;;;9.90;99.90;;;;;;5008508;28;20176;-80
2022/04/11 08:03:49;;;;;;;4.40;3.10;;;9.90;99.90;;;;;;5002311;28;20175;-80
2022/04/11 08:06:15;;;;;;;6.13;3.03;;;9.90;99.70;;;;;;5003581;28;20181;-81
2022/04/11 08:08:47;;;;;;;6.67;3.10;;;9.80;99.10;;;;;;5003421;28;20194;-81
2022/04/11 08:11:17;;;;;;;5.40;2.80;;;10.10;98.30;;;;;;5001968;28;20246;-80
2022/04/11 08:13:43;;;;;;;7.53;3.23;;;10.70;97.90;;;;;;5002385;28;20334;-80
2022/04/11 08:16:09;;;;;;;7.30;2.83;;;11.00;97.30;;;;;;5002351;28;20178;-80
2022/04/11 08:18:35;;;;;;;4.93;3.30;;;11.60;95.40;;;;;;5001702;28;20175;-80
2022/04/11 08:21:02;;;;;;;4.50;3.00;;;10.90;94.80;;;;;;5001676;28;20232;-81
2022/04/11 08:23:29;;;;;;;5.73;3.00;;;11.30;96.90;;;;;;5002088;28;20181;-80
2022/04/11 08:25:55;;;;;;;4.67;2.97;;;11.70;93.50;;;;;;5000106;28;20199;-80
2022/04/11 08:28:20;;;;;;;6.20;3.47;;;11.70;93.60;;;;;;5000836;28;20663;-80
2022/04/11 08:30:46;;;;;;;5.30;3.57;;;11.50;93.80;;;;;;5000423;28;20214;-80
2022/04/11 08:33:12;;;;;;;4.03;2.90;;;11.70;94.00;;;;;;5000316;28;20175;-80
2022/04/11 08:35:39;;;;;;;4.73;3.40;;;11.80;91.90;;;;;;5000625;28;20175;-80
2022/04/11 08:38:04;;;;;;;5.87;3.17;;;11.80;90.90;;;;;;5000292;28;20166;-80
2022/04/11 08:40:31;;;;;;;9.43;3.13;;;11.90;91.50;;;;;;4999661;28;20282;-80
2022/04/11 08:42:56;;;;;;;12.83;3.53;;;12.60;91.60;;;;;;4999169;28;20258;-80
2022/04/11 08:45:23;;;;;;;6.03;3.30;;;12.10;90.80;;;;;;5000354;28;20252;-79
2022/04/11 08:47:50;;;;;;;7.57;3.20;;;12.30;90.70;;;;;;5000029;28;20221;-80
2022/04/11 08:50:17;;;;;;;4.90;2.83;;;12.70;89.20;;;;;;5000987;28;20205;-85
2022/04/11 08:52:43;;;;;;;3.63;2.93;;;13.10;90.20;;;;;;4998663;28;20175;-83
2022/04/11 08:55:10;;;;;;;7.17;3.57;;;13.20;88.60;;;;;;4999019;28;20229;-82
2022/04/11 08:57:39;;;;;;;5.07;3.20;;;12.40;84.70;;;;;;4998774;28;20277;-81
2022/04/11 09:00:16;;;;;;;5.07;3.00;;;12.60;86.50;;;;;;4997498;28;20205;-80
2022/04/11 09:02:44;;;;;;;6.30;3.30;;;13.30;86.10;;;;;;4995750;28;20269;-79
2022/04/11 09:05:11;;;;;;;7.50;2.93;;;14.10;84.90;;;;;;4996510;28;20202;-80
2022/04/11 09:07:58;;;;;;;5.70;3.20;;;13.90;83.40;;;;;;4997190;28;20181;-80
2022/04/11 09:10:25;;;;;;;6.30;2.93;;;14.10;82.10;;;;;;4996118;28;20198;-80
2022/04/11 09:13:10;;;;;;;7.23;3.00;;;14.40;84.20;;;;;;5013772;28;20301;-80
2022/04/11 09:15:43;;;;;;;4.93;3.03;;;14.60;84.50;;;;;;4997230;28;20167;-80
2022/04/11 09:18:09;;;;;;;7.90;3.20;;;13.50;82.00;;;;;;4996873;28;20550;-81
2022/04/11 09:20:35;;;;;;;4.47;3.00;;;12.90;84.30;;;;;;4997782;28;20202;-80
2022/04/11 09:23:00;;;;;;;7.63;2.97;;;13.40;84.30;;;;;;4997615;28;20281;-80
2022/04/11 09:25:31;;;;;;;7.93;3.23;;;14.30;82.20;;;;;;4998601;28;20178;-80
2022/04/11 09:28:11;;;;;;;7.47;3.20;;;13.80;80.90;;;;;;4997446;28;20186;-83
2022/04/11 09:30:43;;;;;;;10.00;3.20;;;14.10;82.70;;;;;;4997204;28;20214;-82
2022/04/11 09:33:11;;;;;;;4.47;2.83;;;13.90;81.90;;;;;;4997136;28;20159;-82
2022/04/11 09:35:46;;;;;;;4.80;3.27;;;14.10;81.80;;;;;;4997207;28;20221;-83
2022/04/11 09:38:20;;;;;;;7.67;3.00;;;14.50;82.00;;;;;;4999331;28;20716;-81
2022/04/11 09:40:54;;;;;;;5.27;3.00;;;14.30;80.70;;;;;;4999184;28;20286;-81
2022/04/11 09:43:28;;;;;;;4.87;3.10;;;14.60;81.20;;;;;;5001171;28;20248;-81
2022/04/11 09:45:55;;;;;;;6.60;2.93;;;14.60;80.20;;;;;;4999804;28;20170;-82
2022/04/11 09:48:24;;;;;;;5.53;3.07;;;15.20;79.40;;;;;;5000340;28;20216;-81
2022/04/11 09:50:50;;;;;;;6.63;3.23;;;14.70;78.50;;;;;;5000511;28;20210;-82
2022/04/11 09:53:20;;;;;;;8.03;3.60;;;14.90;77.40;;;;;;4999682;28;20639;-81
2022/04/11 09:55:53;;;;;;;5.40;3.33;;;15.60;75.40;;;;;;4997933;28;20167;-84
2022/04/11 09:58:22;;;;;;;5.23;3.53;;;14.90;76.10;;;;;;4996450;28;20359;-82
2022/04/11 10:00:49;;;;;;;6.67;3.73;;;14.20;75.00;;;;;;4996344;28;20569;-82
2022/04/11 10:03:16;;;;;;;5.93;3.30;;;14.90;75.70;;;;;;4997601;28;20237;-80
2022/04/11 10:05:42;;;;;;;7.50;4.03;;;14.80;72.90;;;;;;4999725;28;20171;-80
2022/04/11 10:08:10;;;;;;;8.33;4.93;;;14.90;69.10;;;;;;4997553;28;20555;-78
2022/04/11 10:10:39;;;;;;;5.57;3.80;;;14.20;69.80;;;;;;4999702;28;20201;-79
2022/04/11 10:13:07;;;;;;;6.20;4.00;;;15.00;74.10;;;;;;4998679;28;20170;-78
2022/04/11 10:15:32;;;;;;;8.10;3.90;;;14.70;69.90;;;;;;4998587;28;20622;-79
2022/04/11 10:17:58;;;;;;;8.60;4.27;;;14.90;70.90;;;;;;4997693;28;20167;-77
2022/04/11 10:20:25;;;;;;;6.53;3.83;;;15.00;70.60;;;;;;4998287;28;20214;-80
2022/04/11 10:23:11;;;;;;;8.83;4.10;;;15.50;68.70;;;;;;4997339;28;20171;-80
2022/04/11 10:25:44;;;;;;;5.90;4.00;;;16.10;70.00;;;;;;4998496;28;20236;-80
2022/04/11 10:28:24;;;;;;;8.97;4.83;;;16.10;67.50;;;;;;4996874;28;20198;-80
2022/04/11 10:31:10;;;;;;;5.43;4.13;;;15.70;69.90;;;;;;4998654;28;20240;-82
2022/04/11 10:33:48;;;;;;;7.17;4.50;;;15.70;69.10;;;;;;4998607;28;20242;-81
2022/04/11 10:36:36;;;;;;;10.40;4.60;;;15.10;68.30;;;;;;4999644;28;20163;-82
2022/04/11 10:39:16;;;;;;;8.83;4.70;;;15.30;66.90;;;;;;5000457;28;20630;-81
2022/04/11 10:41:55;;;;;;;9.40;5.10;;;15.50;66.00;;;;;;4999202;28;20639;-81
2022/04/11 10:44:42;;;;;;;7.23;4.40;;;16.10;65.50;;;;;;4999843;28;20166;-81
2022/04/11 10:47:10;;;;;;;11.50;4.57;;;16.10;65.30;;;;;;4999444;28;20170;-80
2022/04/11 10:49:45;;;;;;;8.30;4.43;;;16.30;66.90;;;;;;4999742;28;20207;-80
2022/04/11 10:52:41;;;;;;;8.20;4.30;;;15.80;68.50;;;;;;5018927;28;20162;-80
2022/04/11 10:55:15;;;;;;;9.87;4.10;;;16.30;69.10;;;;;;5000286;28;20181;-81
2022/04/11 10:57:47;;;;;;;9.90;4.23;;;16.20;69.40;;;;;;5001161;28;20190;-81
2022/04/11 11:00:31;;;;;;;9.17;4.33;;;15.60;66.10;;;;;;4999001;28;20190;-81
2022/04/11 11:02:59;;;;;;;6.97;4.20;;;15.10;68.10;;;;;;5000065;28;20185;-84
2022/04/11 11:05:30;;;;;;;6.67;4.30;;;15.50;66.50;;;;;;5006378;28;20178;-82
2022/04/11 11:08:14;;;;;;;8.80;4.60;;;15.10;67.30;;;;;;5007746;28;20167;-82
2022/04/11 11:10:49;;;;;;;7.20;4.37;;;15.60;68.60;;;;;;5002858;28;20193;-81
2022/04/11 11:13:40;;;;;;;6.87;4.10;;;16.50;69.60;;;;;;4999835;28;20166;-81
2022/04/11 11:16:10;;;;;;;7.93;4.17;;;16.10;66.80;;;;;;4998283;28;20228;-81
2022/04/11 11:18:51;;;;;;;6.93;4.50;;;16.30;67.70;;;;;;4998376;28;20258;-81
2022/04/11 11:21:32;;;;;;;6.63;3.97;;;16.40;66.60;;;;;;4997575;28;20550;-81
2022/04/11 11:26:53;;;;;;;8.47;4.63;;;15.70;62.20;;;;;;5016586;28;20654;-81
2022/04/11 11:29:26;;;;;;;8.70;4.90;;;16.20;62.10;;;;;;4999169;28;20725;-81
2022/04/11 11:32:04;;;;;;;7.60;4.53;;;16.10;63.00;;;;;;5000276;28;20174;-81
2022/04/11 11:34:31;;;;;;;7.00;4.10;;;15.50;65.60;;;;;;4999893;28;20170;-81
2022/04/11 11:37:02;;;;;;;8.00;4.33;;;16.30;65.30;;;;;;5000084;28;20171;-81
2022/04/11 11:39:29;;;;;;;8.70;4.50;;;15.90;65.00;;;;;;5004323;28;20195;-80
2022/04/11 11:42:02;;;;;;;5.63;3.87;;;15.80;64.20;;;;;;5002166;28;20639;-80
2022/04/11 11:44:30;;;;;;;6.27;4.03;;;15.80;62.80;;;;;;5004408;28;20174;-82
2022/04/11 11:46:58;;;;;;;7.33;3.73;;;16.10;62.90;;;;;;5004059;28;20647;-81
2022/04/11 11:49:26;;;;;;;6.73;3.90;;;15.90;63.00;;;;;;5003941;28;20207;-82
2022/04/11 11:51:52;;;;;;;7.50;3.43;;;15.80;61.80;;;;;;5004331;28;20171;-82
2022/04/11 11:54:39;;;;;;;7.57;3.90;;;15.70;61.90;;;;;;5004852;28;20205;-82
2022/04/11 11:57:22;;;;;;;6.70;4.00;;;15.90;63.10;;;;;;5003049;28;20655;-80
2022/04/11 11:59:53;;;;;;;5.10;4.07;;;16.50;61.30;;;;;;5004522;28;20209;-83
2022/04/11 12:05:25;;;;;;;5.47;3.50;;;18.30;58.90;;;;;;5022117;28;20218;-81
2022/04/11 12:08:01;;;;;;;7.63;4.00;;;18.50;56.70;;;;;;5001807;28;20185;-82
2022/04/11 12:10:27;;;;;;;8.50;4.40;;;17.90;59.10;;;;;;5001801;28;20257;-83
2022/04/11 12:12:54;;;;;;;7.10;3.57;;;16.50;59.90;;;;;;5002055;28;20179;-82
2022/04/11 12:15:20;;;;;;;7.77;4.13;;;16.40;62.60;;;;;;5002555;28;20644;-82
2022/04/11 12:17:49;;;;;;;5.13;3.47;;;16.70;61.10;;;;;;5002861;28;20201;-81
2022/04/11 12:20:17;;;;;;;5.03;3.00;;;16.10;61.10;;;;;;5004634;28;20198;-81
2022/04/11 12:23:06;;;;;;;6.30;3.53;;;14.90;58.80;;;;;;5005193;28;20167;-81
2022/04/11 12:25:33;;;;;;;6.10;3.37;;;15.30;60.60;;;;;;5006075;28;20178;-80
2022/04/11 12:28:22;;;;;;;4.87;3.40;;;15.80;60.20;;;;;;5006287;28;20609;-80
2022/04/11 12:31:03;;;;;;;6.83;3.83;;;15.60;61.00;;;;;;5006980;28;20195;-80
2022/04/11 12:33:36;;;;;;;7.07;3.80;;;15.40;62.40;;;;;;5006440;28;20273;-81
2022/04/11 12:36:14;;;;;;;7.30;3.53;;;15.20;61.80;;;;;;5008233;28;20182;-81
2022/04/11 12:38:41;;;;;;;4.73;3.40;;;15.40;61.70;;;;;;5007501;28;20174;-81
2022/04/11 12:41:09;;;;;;;4.57;3.40;;;15.90;61.80;;;;;;5004219;28;20249;-80
2022/04/11 12:43:54;;;;;;;4.03;3.60;;;15.20;62.30;;;;;;5007147;28;20202;-81
2022/04/11 12:46:24;;;;;;;6.07;3.83;;;14.70;64.00;;;;;;5003764;28;20635;-82
2022/04/11 12:48:56;;;;;;;8.87;3.70;;;14.50;66.90;;;;;;5005273;28;20201;-81
2022/04/11 12:51:23;;;;;;;7.27;4.20;;;14.60;65.70;;;;;;5005099;28;20174;-82
2022/04/11 12:53:48;;;;;;;6.77;4.00;;;14.70;64.70;;;;;;5005165;28;20206;-82
2022/04/11 12:56:14;;;;;;;11.93;4.10;;;14.80;66.40;;;;;;5003763;28;20186;-81
2022/04/11 12:58:40;;;;;;;7.83;3.53;;;14.80;66.50;;;;;;5002578;28;20214;-82
2022/04/11 13:01:05;;;;;;;5.30;3.60;;;14.80;65.90;;;;;;5005538;28;20248;-81
2022/04/11 13:03:31;;;;;;;5.47;3.47;;;14.40;64.80;;;;;;5006619;28;20220;-82
2022/04/11 13:05:57;;;;;;;11.07;4.17;;;14.60;65.40;;;;;;5008152;28;20175;-81